createdAt,value
2022-10-11T00:00:13.653Z,3.70
2022-10-11T00:02:40.806Z,2.60
2022-10-11T00:05:08.662Z,2.90
2022-10-11T00:07:38.283Z,2.67
2022-10-11T00:10:07.359Z,2.97
2022-10-11T00:12:35.340Z,2.45
2022-10-11T00:15:04.409Z,3.15
2022-10-11T00:17:32.381Z,3.10
2022-10-11T00:19:59.719Z,2.67
2022-10-11T00:22:26.935Z,2.50
2022-10-11T00:24:54.128Z,2.95
2022-10-11T00:27:21.256Z,2.72
2022-10-11T00:29:48.359Z,3.30
2022-10-11T00:32:15.486Z,2.67
2022-10-11T00:34:42.633Z,3.03
2022-10-11T00:37:09.761Z,2.78
2022-10-11T00:39:36.881Z,2.85
2022-10-11T00:42:04.653Z,2.50
2022-10-11T00:44:32.976Z,2.85
2022-10-11T00:47:10.457Z,2.92
2022-10-11T00:49:50.470Z,2.75
2022-10-11T00:52:34.220Z,2.88
2022-10-11T00:55:11.763Z,2.47
2022-10-11T00:57:43.125Z,2.53
2022-10-11T01:00:13.738Z,2.10
2022-10-11T01:02:41.481Z,3.15
2022-10-11T01:05:29.254Z,2.60
2022-10-11T01:08:01.253Z,2.38
2022-10-11T01:10:29.034Z,2.60
2022-10-11T01:13:08.167Z,2.15
2022-10-11T01:15:48.760Z,3.22
2022-10-11T01:18:40.240Z,2.38
2022-10-11T01:21:26.378Z,2.40
2022-10-11T01:24:35.279Z,1.92
2022-10-11T01:27:40.097Z,2.45
2022-10-11T01:30:27.484Z,2.53
2022-10-11T01:33:15.715Z,2.72
2022-10-11T01:36:14.036Z,2.35
2022-10-11T01:38:50.638Z,2.60
2022-10-11T01:41:40.971Z,2.70
2022-10-11T01:44:09.327Z,3.45
2022-10-11T01:46:36.994Z,2.38
2022-10-11T01:49:05.142Z,2.78
2022-10-11T01:51:35.773Z,2.55
2022-10-11T01:54:09.020Z,2.72
2022-10-11T01:56:54.467Z,3.38
2022-10-11T01:59:28.558Z,2.60
2022-10-11T02:02:13.987Z,3.08
2022-10-11T02:04:47.309Z,2.65
2022-10-11T02:07:42.224Z,2.75
2022-10-11T02:10:34.561Z,2.63
2022-10-11T02:13:29.073Z,2.35
2022-10-11T02:15:59.182Z,2.15
2022-10-11T02:18:33.170Z,2.80
2022-10-11T02:21:05.036Z,2.70
2022-10-11T02:23:39.156Z,2.90
2022-10-11T02:26:08.853Z,3.42
2022-10-11T02:28:39.153Z,2.50
2022-10-11T02:31:07.732Z,2.35
2022-10-11T02:33:44.841Z,2.50
2022-10-11T02:36:24.702Z,2.47
2022-10-11T02:38:58.273Z,2.80
2022-10-11T02:41:38.620Z,2.20
2022-10-11T02:44:32.018Z,2.55
2022-10-11T02:47:01.209Z,2.33
2022-10-11T02:49:31.580Z,1.98
2022-10-11T02:51:59.466Z,2.40
2022-10-11T02:54:27.115Z,2.60
2022-10-11T02:56:54.298Z,2.42
2022-10-11T02:59:21.483Z,2.72
2022-10-11T03:01:48.790Z,2.00
2022-10-11T03:04:15.969Z,2.50
2022-10-11T03:06:43.130Z,2.13
2022-10-11T03:09:10.318Z,1.90
2022-10-11T03:11:37.387Z,2.13
2022-10-11T03:14:04.429Z,2.88
2022-10-11T03:16:31.466Z,2.40
2022-10-11T03:18:58.500Z,2.30
2022-10-11T03:21:25.652Z,2.30
2022-10-11T03:23:52.706Z,2.42
2022-10-11T03:26:19.806Z,2.03
2022-10-11T03:28:46.914Z,2.70
2022-10-11T03:31:14.132Z,2.75
2022-10-11T03:33:41.499Z,3.00
2022-10-11T03:36:09.185Z,3.00
2022-10-11T03:38:36.437Z,2.40
2022-10-11T03:41:03.584Z,3.05
2022-10-11T03:43:30.664Z,2.60
2022-10-11T03:45:57.777Z,2.38
2022-10-11T03:48:24.906Z,2.53
2022-10-11T03:50:52.080Z,2.47
2022-10-11T03:53:19.221Z,2.15
2022-10-11T03:55:46.374Z,2.65
2022-10-11T03:58:13.475Z,2.25
2022-10-11T04:00:40.579Z,2.67
2022-10-11T04:03:07.689Z,2.58
2022-10-11T04:05:34.805Z,2.38
2022-10-11T04:08:01.984Z,3.15
2022-10-11T04:10:31.049Z,1.85
2022-10-11T04:12:58.155Z,1.92
2022-10-11T04:15:25.284Z,1.90
2022-10-11T04:17:52.360Z,2.80
2022-10-11T04:20:19.519Z,2.58
2022-10-11T04:22:46.626Z,2.80
2022-10-11T04:25:13.800Z,2.85
2022-10-11T04:27:40.871Z,2.67
2022-10-11T04:30:08.737Z,2.85
2022-10-11T04:32:35.820Z,2.80
2022-10-11T04:35:04.553Z,2.88
2022-10-11T04:37:32.084Z,2.20
2022-10-11T04:39:59.472Z,2.28
2022-10-11T04:42:26.721Z,2.55
2022-10-11T04:44:53.821Z,2.42
2022-10-11T04:47:21.036Z,2.30
2022-10-11T04:49:48.210Z,2.15
2022-10-11T04:52:15.398Z,2.45
2022-10-11T04:54:42.508Z,2.67
2022-10-11T04:57:09.597Z,2.53
2022-10-11T04:59:36.697Z,2.35
2022-10-11T05:02:04.037Z,3.03
2022-10-11T05:04:31.137Z,2.15
2022-10-11T05:06:58.426Z,2.92
2022-10-11T05:09:25.544Z,2.58
2022-10-11T05:11:52.575Z,3.35
2022-10-11T05:14:19.764Z,2.08
2022-10-11T05:16:46.861Z,1.80
2022-10-11T05:19:14.078Z,2.63
2022-10-11T05:21:41.242Z,2.88
2022-10-11T05:24:08.395Z,3.05
2022-10-11T05:26:35.583Z,2.17
2022-10-11T05:29:03.184Z,3.00
2022-10-11T05:31:30.356Z,2.97
2022-10-11T05:33:57.524Z,3.15
2022-10-11T05:36:24.731Z,2.53
2022-10-11T05:38:51.981Z,2.17
2022-10-11T05:41:19.426Z,1.67
2022-10-11T05:43:46.606Z,3.20
2022-10-11T05:46:13.862Z,2.25
2022-10-11T05:48:41.236Z,2.92
2022-10-11T05:51:10.417Z,3.13
2022-10-11T05:53:38.467Z,2.53
2022-10-11T05:56:16.825Z,2.97
2022-10-11T05:58:43.924Z,2.42
2022-10-11T06:01:19.073Z,1.80
2022-10-11T06:03:46.306Z,2.42
2022-10-11T06:06:13.534Z,2.33
2022-10-11T06:08:40.729Z,1.70
2022-10-11T06:11:16.828Z,2.40
2022-10-11T06:13:44.431Z,2.67
2022-10-11T06:16:11.862Z,2.80
2022-10-11T06:18:39.033Z,2.72
2022-10-11T06:21:06.410Z,2.88
2022-10-11T06:23:33.489Z,2.30
2022-10-11T06:26:09.321Z,2.97
2022-10-11T06:28:37.267Z,2.33
2022-10-11T06:31:05.767Z,3.72
2022-10-11T06:33:33.328Z,2.58
2022-10-11T06:36:04.554Z,2.83
2022-10-11T06:38:33.215Z,2.83
2022-10-11T06:41:23.524Z,2.90
2022-10-11T06:43:51.152Z,2.30
2022-10-11T06:46:20.390Z,3.00
2022-10-11T06:48:50.686Z,2.38
2022-10-11T06:51:20.386Z,3.22
2022-10-11T06:53:56.810Z,2.08
2022-10-11T06:56:25.275Z,2.40
2022-10-11T06:58:53.652Z,2.97
2022-10-11T07:01:23.604Z,3.38
2022-10-11T07:03:55.413Z,2.95
2022-10-11T07:06:25.050Z,2.83
2022-10-11T07:08:52.331Z,2.13
2022-10-11T07:11:24.699Z,2.72
2022-10-11T07:13:54.101Z,3.17
2022-10-11T07:16:22.344Z,3.70
2022-10-11T07:18:58.796Z,3.17
2022-10-11T07:21:27.852Z,3.58
2022-10-11T07:23:55.019Z,3.83
2022-10-11T07:26:22.299Z,2.70
2022-10-11T07:28:49.515Z,3.95
2022-10-11T07:31:22.615Z,2.60
2022-10-11T07:33:49.821Z,3.63
2022-10-11T07:36:23.662Z,3.67
2022-10-11T07:38:51.785Z,3.42
2022-10-11T07:41:19.494Z,3.00
2022-10-11T07:43:49.844Z,3.47
2022-10-11T07:46:20.160Z,4.10
2022-10-11T07:48:47.374Z,3.90
2022-10-11T07:51:17.613Z,3.53
2022-10-11T07:53:50.537Z,3.78
2022-10-11T07:56:23.633Z,4.00
2022-10-11T07:58:52.715Z,2.85
2022-10-11T08:01:20.776Z,3.20
2022-10-11T08:03:48.675Z,3.88
2022-10-11T08:06:19.695Z,6.32
2022-10-11T08:08:46.965Z,4.97
2022-10-11T08:11:43.565Z,4.93
2022-10-11T08:14:11.555Z,4.88
2022-10-11T08:16:39.428Z,4.57
2022-10-11T08:19:07.357Z,5.22
2022-10-11T08:21:34.974Z,5.28
2022-10-11T08:24:03.675Z,5.07
2022-10-11T08:26:31.856Z,4.20
2022-10-11T08:29:03.408Z,3.72
2022-10-11T08:31:30.971Z,4.72
2022-10-11T08:33:58.293Z,4.78
2022-10-11T08:36:25.428Z,6.05
2022-10-11T08:38:52.520Z,4.35
2022-10-11T08:41:27.953Z,4.88
2022-10-11T08:44:12.051Z,4.97
2022-10-11T08:46:43.103Z,3.92
2022-10-11T08:49:13.407Z,4.00
2022-10-11T08:51:46.047Z,4.45
2022-10-11T08:54:20.586Z,4.60
2022-10-11T08:56:48.607Z,4.90
2022-10-11T08:59:23.701Z,5.25
2022-10-11T09:02:01.516Z,5.35
2022-10-11T09:04:29.011Z,5.45
2022-10-11T09:07:18.646Z,4.00
2022-10-11T09:10:25.350Z,3.58
2022-10-11T09:13:10.807Z,3.83
2022-10-11T09:16:01.138Z,3.58
2022-10-11T09:18:41.058Z,3.70
2022-10-11T09:21:33.057Z,3.65
2022-10-11T09:24:13.244Z,4.28
2022-10-11T09:26:50.332Z,4.90
2022-10-11T09:29:24.360Z,5.43
2022-10-11T09:31:57.251Z,4.75
2022-10-11T09:34:32.535Z,4.43
2022-10-11T09:37:27.262Z,6.25
2022-10-11T09:40:05.213Z,4.13
2022-10-11T09:42:32.333Z,3.90
2022-10-11T09:45:01.975Z,5.30
2022-10-11T09:47:33.022Z,4.93
2022-10-11T09:50:16.733Z,4.32
2022-10-11T09:52:56.372Z,5.55
2022-10-11T09:55:59.090Z,4.85
2022-10-11T09:58:36.195Z,4.20
2022-10-11T10:01:08.542Z,3.35
2022-10-11T10:03:41.675Z,4.60
2022-10-11T10:06:26.315Z,3.97
2022-10-11T10:08:53.460Z,3.50
2022-10-11T10:11:20.712Z,3.38
2022-10-11T10:13:53.489Z,3.42
2022-10-11T10:16:22.463Z,3.58
2022-10-11T10:18:52.765Z,3.95
2022-10-11T10:21:28.488Z,4.10
2022-10-11T10:23:57.582Z,3.30
2022-10-11T10:26:26.385Z,3.95
2022-10-11T10:29:08.407Z,2.72
2022-10-11T10:34:47.328Z,3.03
2022-10-11T10:37:27.467Z,2.97
2022-10-11T10:39:57.759Z,3.25
2022-10-11T10:42:24.926Z,3.90
2022-10-11T10:44:54.903Z,4.20
2022-10-11T10:47:44.110Z,4.57
2022-10-11T10:50:25.982Z,3.65
2022-10-11T10:52:59.211Z,3.00
2022-10-11T10:55:29.850Z,3.88
2022-10-11T10:58:39.866Z,4.18
2022-10-11T11:01:20.448Z,3.45
2022-10-11T11:03:52.086Z,3.40
2022-10-11T11:06:36.691Z,2.88
2022-10-11T11:09:24.197Z,3.65
2022-10-11T11:11:51.520Z,2.53
2022-10-11T11:14:49.462Z,2.40
2022-10-11T11:17:19.705Z,1.83
2022-10-11T11:20:08.835Z,2.35
2022-10-11T11:23:00.965Z,1.80
2022-10-11T11:25:49.412Z,3.25
2022-10-11T11:28:41.147Z,3.95
2022-10-11T11:31:11.108Z,3.37
2022-10-11T11:33:56.925Z,2.17
2022-10-11T11:36:46.968Z,2.03
2022-10-11T11:39:19.274Z,2.22
2022-10-11T11:44:30.960Z,3.17
2022-10-11T11:47:06.765Z,2.75
2022-10-11T11:49:46.719Z,2.10
2022-10-11T11:52:22.984Z,2.10
2022-10-11T11:55:05.715Z,2.10
2022-10-11T11:57:41.485Z,2.08
2022-10-11T12:00:20.703Z,2.08
2022-10-11T12:03:13.755Z,2.38
2022-10-11T12:06:16.012Z,2.15
2022-10-11T12:09:21.565Z,2.28
2022-10-11T12:11:58.620Z,2.97
2022-10-11T12:14:36.907Z,2.42
2022-10-11T12:17:13.712Z,3.17
2022-10-11T12:19:44.562Z,2.50
2022-10-11T12:22:26.946Z,1.75
2022-10-11T12:24:59.857Z,2.15
2022-10-11T12:27:40.792Z,2.78
2022-10-11T12:30:48.096Z,2.78
2022-10-11T12:33:25.287Z,2.10
2022-10-11T12:35:55.513Z,2.42
2022-10-11T12:38:34.451Z,2.67
2022-10-11T12:41:10.611Z,2.33
2022-10-11T12:43:49.707Z,2.15
2022-10-11T12:46:29.113Z,2.60
2022-10-11T12:48:58.895Z,1.70
2022-10-11T12:51:39.256Z,2.50
2022-10-11T12:54:37.515Z,2.10
2022-10-11T12:57:29.538Z,1.95
2022-10-11T13:00:28.965Z,2.78
2022-10-11T13:03:02.460Z,1.88
2022-10-11T13:05:44.932Z,1.98
2022-10-11T13:08:19.054Z,1.60
2022-10-11T13:10:47.747Z,1.33
2022-10-11T13:13:45.291Z,2.63
2022-10-11T13:16:19.026Z,1.88
2022-10-11T13:18:48.860Z,2.25
2022-10-11T13:21:39.455Z,1.67
2022-10-11T13:24:13.969Z,2.10
2022-10-11T13:26:41.703Z,1.85
2022-10-11T13:29:18.462Z,2.40
2022-10-11T13:31:47.377Z,2.17
2022-10-11T13:34:17.591Z,2.75
2022-10-11T13:36:46.947Z,2.67
2022-10-11T13:39:31.089Z,2.47
2022-10-11T13:42:00.206Z,2.75
2022-10-11T13:44:27.546Z,2.42
2022-10-11T13:46:54.881Z,3.08
2022-10-11T13:49:37.291Z,2.15
2022-10-11T13:52:20.429Z,2.08
2022-10-11T13:54:57.475Z,2.00
2022-10-11T13:57:48.402Z,1.95
2022-10-11T14:00:15.496Z,1.83
2022-10-11T14:03:07.867Z,1.88
2022-10-11T14:05:39.885Z,2.63
2022-10-11T14:08:27.291Z,2.50
2022-10-11T14:10:57.878Z,2.35
2022-10-11T14:13:37.556Z,1.77
2022-10-11T14:16:09.905Z,2.00
2022-10-11T14:21:19.565Z,1.90
2022-10-11T14:26:22.373Z,2.38
2022-10-11T14:29:00.613Z,2.08
2022-10-11T14:31:30.061Z,2.35
2022-10-11T14:33:57.845Z,2.40
2022-10-11T14:36:25.288Z,2.30
2022-10-11T14:38:53.207Z,2.00
2022-10-11T14:41:20.410Z,2.63
2022-10-11T14:43:47.579Z,2.67
2022-10-11T14:46:24.123Z,2.40
2022-10-11T14:48:56.521Z,2.30
2022-10-11T14:51:32.354Z,2.15
2022-10-11T14:53:59.443Z,3.20
2022-10-11T14:56:26.669Z,1.85
2022-10-11T14:58:53.780Z,2.97
2022-10-11T15:01:21.062Z,3.10
2022-10-11T15:03:48.205Z,2.25
2022-10-11T15:06:21.599Z,1.85
2022-10-11T15:08:49.169Z,2.78
2022-10-11T15:11:18.362Z,2.08
2022-10-11T15:13:45.673Z,2.33
2022-10-11T15:16:15.050Z,2.20
2022-10-11T15:18:44.191Z,2.78
2022-10-11T15:21:14.830Z,3.10
2022-10-11T15:23:41.898Z,2.83
2022-10-11T15:26:15.382Z,3.80
2022-10-11T15:28:43.383Z,2.90
2022-10-11T15:31:11.417Z,2.53
2022-10-11T15:33:39.897Z,1.88
2022-10-11T15:36:09.573Z,2.58
2022-10-11T15:38:41.497Z,1.50
2022-10-11T15:41:12.975Z,2.35
2022-10-11T15:43:40.661Z,2.10
2022-10-11T15:46:08.794Z,1.73
2022-10-11T15:48:38.334Z,2.03
2022-10-11T15:51:05.562Z,1.73
2022-10-11T15:53:32.749Z,1.33
2022-10-11T15:56:06.523Z,1.33
2022-10-11T15:58:39.947Z,2.15
2022-10-11T16:01:20.759Z,1.98
2022-10-11T16:03:49.504Z,2.10
2022-10-11T16:06:18.391Z,2.00
2022-10-11T16:08:45.634Z,1.73
2022-10-11T16:11:13.696Z,1.35
2022-10-11T16:13:41.168Z,1.50
2022-10-11T16:16:09.838Z,1.58
2022-10-11T16:18:37.625Z,1.35
2022-10-11T16:21:10.321Z,1.23
2022-10-11T16:23:38.262Z,1.80
2022-10-11T16:26:09.062Z,1.48
2022-10-11T16:28:37.686Z,1.80
2022-10-11T16:31:18.345Z,1.33
2022-10-11T16:33:46.257Z,1.30
2022-10-11T16:36:40.205Z,2.05
2022-10-11T16:39:14.218Z,1.65
2022-10-11T16:41:41.922Z,1.75
2022-10-11T16:44:16.352Z,2.20
2022-10-11T16:46:48.337Z,1.48
2022-10-11T16:49:22.037Z,2.17
2022-10-11T16:51:53.821Z,1.33
2022-10-11T16:54:21.943Z,1.60
2022-10-11T16:56:50.132Z,2.05
2022-10-11T16:59:17.644Z,2.03
2022-10-11T17:01:45.238Z,1.45
2022-10-11T17:04:13.648Z,1.52
2022-10-11T17:06:43.861Z,1.85
2022-10-11T17:09:11.482Z,1.67
2022-10-11T17:11:38.784Z,2.10
2022-10-11T17:14:07.254Z,1.88
2022-10-11T17:16:37.972Z,2.30
2022-10-11T17:19:05.392Z,2.65
2022-10-11T17:21:32.601Z,2.33
2022-10-11T17:23:59.704Z,2.08
2022-10-11T17:26:27.718Z,2.63
2022-10-11T17:28:56.572Z,2.40
2022-10-11T17:31:24.770Z,2.08
2022-10-11T17:33:53.260Z,3.25
2022-10-11T17:36:27.947Z,2.20
2022-10-11T17:38:57.078Z,3.20
2022-10-11T17:41:29.432Z,2.72
2022-10-11T17:43:59.740Z,2.83
2022-10-11T17:46:28.214Z,3.30
2022-10-11T17:48:55.728Z,5.03
2022-10-11T17:51:23.196Z,3.58
2022-10-11T17:53:51.215Z,3.60
2022-10-11T17:56:28.819Z,4.18
2022-10-11T17:58:58.701Z,3.72
2022-10-11T18:01:28.531Z,2.50
2022-10-11T18:04:02.022Z,2.78
2022-10-11T18:06:31.930Z,3.70
2022-10-11T18:09:03.462Z,3.88
2022-10-11T18:11:30.901Z,5.20
2022-10-11T18:13:58.033Z,4.75
2022-10-11T18:16:27.264Z,5.88
2022-10-11T18:18:56.739Z,5.78
2022-10-11T18:21:29.874Z,4.43
2022-10-11T18:24:08.339Z,5.80
2022-10-11T18:26:35.489Z,5.18
2022-10-11T18:29:02.773Z,4.95
2022-10-11T18:31:31.746Z,5.35
2022-10-11T18:33:58.847Z,5.63
2022-10-11T18:36:28.329Z,6.25
2022-10-11T18:38:58.571Z,5.95
2022-10-11T18:41:32.085Z,5.40
2022-10-11T18:44:05.134Z,5.93
2022-10-11T18:46:32.854Z,5.00
2022-10-11T18:49:03.465Z,6.05
2022-10-11T18:51:36.367Z,8.35
2022-10-11T18:54:04.592Z,7.63
2022-10-11T18:56:33.059Z,7.88
2022-10-11T18:59:01.009Z,6.20
2022-10-11T19:01:39.965Z,5.85
2022-10-11T19:04:09.704Z,5.50
2022-10-11T19:06:43.006Z,5.50
2022-10-11T19:09:30.826Z,6.07
2022-10-11T19:11:58.657Z,5.50
2022-10-11T19:14:28.814Z,5.47
2022-10-11T19:16:56.836Z,4.55
2022-10-11T19:19:26.869Z,5.28
2022-10-11T19:21:54.683Z,5.30
2022-10-11T19:24:25.081Z,5.38
2022-10-11T19:27:01.253Z,6.18
2022-10-11T19:29:30.485Z,6.28
2022-10-11T19:32:00.385Z,6.10
2022-10-11T19:34:28.743Z,5.93
2022-10-11T19:36:56.942Z,11.20
2022-10-11T19:39:25.517Z,9.65
2022-10-11T19:41:52.959Z,9.57
2022-10-11T19:44:20.592Z,11.00
2022-10-11T19:46:52.442Z,10.80
2022-10-11T19:49:23.959Z,12.48
2022-10-11T19:51:52.588Z,10.57
2022-10-11T19:54:20.012Z,12.70
2022-10-11T19:56:47.475Z,14.88
2022-10-11T19:59:15.722Z,14.23
2022-10-11T20:01:45.517Z,12.43
2022-10-11T20:07:02.305Z,9.60
2022-10-11T20:09:30.684Z,10.02
2022-10-11T20:11:58.810Z,8.00
2022-10-11T20:14:26.099Z,8.95
2022-10-11T20:16:53.308Z,9.65
2022-10-11T20:19:26.323Z,9.05
2022-10-11T20:22:00.407Z,8.80
2022-10-11T20:24:32.621Z,8.18
2022-10-11T20:27:02.549Z,9.02
2022-10-11T20:29:29.743Z,7.45
2022-10-11T20:31:56.902Z,7.55
2022-10-11T20:34:24.565Z,7.47
2022-10-11T20:36:52.298Z,7.28
2022-10-11T20:39:19.486Z,7.20
2022-10-11T20:41:46.663Z,6.88
2022-10-11T20:44:16.114Z,7.45
2022-10-11T20:46:43.397Z,7.25
2022-10-11T20:49:11.970Z,8.00
2022-10-11T20:51:41.901Z,7.78
2022-10-11T20:54:09.668Z,8.35
2022-10-11T20:56:37.761Z,8.13
2022-10-11T20:59:06.292Z,7.72
2022-10-11T21:01:37.221Z,9.00
2022-10-11T21:04:05.683Z,9.05
2022-10-11T21:06:33.829Z,11.13
2022-10-11T21:09:01.304Z,11.40
2022-10-11T21:11:31.181Z,10.15
2022-10-11T21:14:04.075Z,10.73
2022-10-11T21:16:32.380Z,8.82
2022-10-11T21:19:01.396Z,8.05
2022-10-11T21:21:29.608Z,6.82
2022-10-11T21:23:58.819Z,6.00
2022-10-11T21:26:26.293Z,6.88
2022-10-11T21:28:54.038Z,5.95
2022-10-11T21:31:22.751Z,6.38
2022-10-11T21:33:50.213Z,6.18
2022-10-11T21:36:20.184Z,5.45
2022-10-11T21:38:48.487Z,5.90
2022-10-11T21:41:25.463Z,6.07
2022-10-11T21:43:53.109Z,6.88
2022-10-11T21:46:41.769Z,5.43
2022-10-11T21:49:15.788Z,5.50
2022-10-11T21:51:42.975Z,6.05
2022-10-11T21:54:11.412Z,6.57
2022-10-11T21:56:38.583Z,5.68
2022-10-11T21:59:09.443Z,6.05
2022-10-11T22:01:46.713Z,5.35
2022-10-11T22:04:16.785Z,5.03
2022-10-11T22:06:44.439Z,4.93
2022-10-11T22:09:11.666Z,4.80
2022-10-11T22:11:38.949Z,4.40
2022-10-11T22:14:06.272Z,5.03
2022-10-11T22:16:35.257Z,5.10
2022-10-11T22:19:02.856Z,5.15
2022-10-11T22:21:31.546Z,5.88
2022-10-11T22:23:59.127Z,5.40
2022-10-11T22:26:32.397Z,4.50
2022-10-11T22:29:00.294Z,5.03
2022-10-11T22:31:28.037Z,5.15
2022-10-11T22:33:56.984Z,4.85
2022-10-11T22:36:24.393Z,4.80
2022-10-11T22:38:52.873Z,4.32
2022-10-11T22:41:26.888Z,4.25
2022-10-11T22:43:54.112Z,4.25
2022-10-11T22:46:21.211Z,3.50
2022-10-11T22:48:51.748Z,4.25
2022-10-11T22:51:19.399Z,4.57
2022-10-11T22:53:46.571Z,3.40
2022-10-11T22:56:13.737Z,3.63
2022-10-11T22:58:40.822Z,4.15
2022-10-11T23:01:13.959Z,4.22
2022-10-11T23:03:41.331Z,3.53
2022-10-11T23:06:09.118Z,4.25
2022-10-11T23:08:36.232Z,3.72
2022-10-11T23:11:05.582Z,3.58
2022-10-11T23:13:33.383Z,3.00
2022-10-11T23:16:09.649Z,3.67
2022-10-11T23:18:37.448Z,3.42
2022-10-11T23:21:05.447Z,2.83
2022-10-11T23:23:33.232Z,4.00
2022-10-11T23:26:09.222Z,3.78
2022-10-11T23:28:36.841Z,3.28
2022-10-11T23:31:13.106Z,3.58
2022-10-11T23:33:40.597Z,3.58
2022-10-11T23:36:21.081Z,4.72
2022-10-11T23:38:53.545Z,4.53
2022-10-11T23:41:21.863Z,4.45
2022-10-11T23:43:49.235Z,5.10
2022-10-11T23:46:16.662Z,4.63
2022-10-11T23:48:43.788Z,4.25
2022-10-11T23:51:11.154Z,4.25
2022-10-11T23:53:38.727Z,3.63
2022-10-11T23:56:06.649Z,4.18
2022-10-11T23:58:33.771Z,3.65
